sensor_id;sensor_type;location;lat;lon;timestamp;temperature;humidity
1570;DHT22;778;50.120;8.698;2022-07-15T00:01:31;20.20;60.70
1570;DHT22;778;50.120;8.698;2022-07-15T00:04:01;20.10;60.10
1570;DHT22;778;50.120;8.698;2022-07-15T00:06:31;20.20;60.30
1570;DHT22;778;50.120;8.698;2022-07-15T00:08:59;20.20;60.10
1570;DHT22;778;50.120;8.698;2022-07-15T00:11:28;20.20;60.20
1570;DHT22;778;50.120;8.698;2022-07-15T00:13:56;20.20;60.10
1570;DHT22;778;50.120;8.698;2022-07-15T00:16:29;20.10;60.20
1570;DHT22;778;50.120;8.698;2022-07-15T00:18:57;20.10;60.30
1570;DHT22;778;50.120;8.698;2022-07-15T00:21:26;20.20;61.70
1570;DHT22;778;50.120;8.698;2022-07-15T00:23:56;20.30;62.30
1570;DHT22;778;50.120;8.698;2022-07-15T00:26:26;20.30;61.60
1570;DHT22;778;50.120;8.698;2022-07-15T00:29:00;20.40;63.00
1570;DHT22;778;50.120;8.698;2022-07-15T00:31:28;20.30;61.20
1570;DHT22;778;50.120;8.698;2022-07-15T00:33:58;20.20;62.10
1570;DHT22;778;50.120;8.698;2022-07-15T00:36:26;20.10;61.90
1570;DHT22;778;50.120;8.698;2022-07-15T00:38:56;20.10;61.70
1570;DHT22;778;50.120;8.698;2022-07-15T00:41:25;20.10;62.40
1570;DHT22;778;50.120;8.698;2022-07-15T00:43:54;20.10;62.10
1570;DHT22;778;50.120;8.698;2022-07-15T00:46:22;20.00;61.90
1570;DHT22;778;50.120;8.698;2022-07-15T00:48:51;19.90;62.30
1570;DHT22;778;50.120;8.698;2022-07-15T00:51:19;19.90;62.90
1570;DHT22;778;50.120;8.698;2022-07-15T00:53:48;19.90;63.10
1570;DHT22;778;50.120;8.698;2022-07-15T00:56:21;19.80;61.70
1570;DHT22;778;50.120;8.698;2022-07-15T00:58:51;19.90;63.00
1570;DHT22;778;50.120;8.698;2022-07-15T01:01:21;20.00;62.20
1570;DHT22;778;50.120;8.698;2022-07-15T01:03:50;19.90;61.80
1570;DHT22;778;50.120;8.698;2022-07-15T01:06:20;19.90;61.80
1570;DHT22;778;50.120;8.698;2022-07-15T01:08:49;19.80;62.20
1570;DHT22;778;50.120;8.698;2022-07-15T01:11:20;19.90;62.50
1570;DHT22;778;50.120;8.698;2022-07-15T01:13:49;19.90;62.00
1570;DHT22;778;50.120;8.698;2022-07-15T01:16:18;19.80;61.90
1570;DHT22;778;50.120;8.698;2022-07-15T01:18:47;19.70;62.00
1570;DHT22;778;50.120;8.698;2022-07-15T01:21:17;19.70;62.20
1570;DHT22;778;50.120;8.698;2022-07-15T01:23:48;19.70;62.90
1570;DHT22;778;50.120;8.698;2022-07-15T01:26:36;19.50;62.60
1570;DHT22;778;50.120;8.698;2022-07-15T01:29:05;19.50;62.80
1570;DHT22;778;50.120;8.698;2022-07-15T01:31:34;19.40;62.90
1570;DHT22;778;50.120;8.698;2022-07-15T01:34:03;19.40;63.20
1570;DHT22;778;50.120;8.698;2022-07-15T01:36:34;19.30;63.40
1570;DHT22;778;50.120;8.698;2022-07-15T01:39:04;19.30;63.40
1570;DHT22;778;50.120;8.698;2022-07-15T01:41:53;19.30;63.70
1570;DHT22;778;50.120;8.698;2022-07-15T01:44:23;19.30;63.40
1570;DHT22;778;50.120;8.698;2022-07-15T01:46:53;19.40;63.80
1570;DHT22;778;50.120;8.698;2022-07-15T01:49:27;19.30;63.70
1570;DHT22;778;50.120;8.698;2022-07-15T01:52:13;19.30;63.90
1570;DHT22;778;50.120;8.698;2022-07-15T01:54:44;19.30;63.70
1570;DHT22;778;50.120;8.698;2022-07-15T01:57:13;19.20;63.70
1570;DHT22;778;50.120;8.698;2022-07-15T01:59:54;19.20;63.70
1570;DHT22;778;50.120;8.698;2022-07-15T02:02:48;19.20;64.20
1570;DHT22;778;50.120;8.698;2022-07-15T02:05:20;19.20;64.10
1570;DHT22;778;50.120;8.698;2022-07-15T02:07:51;19.10;64.10
1570;DHT22;778;50.120;8.698;2022-07-15T02:10:21;19.10;64.50
1570;DHT22;778;50.120;8.698;2022-07-15T02:12:51;19.10;64.60
1570;DHT22;778;50.120;8.698;2022-07-15T02:15:25;19.10;64.80
1570;DHT22;778;50.120;8.698;2022-07-15T02:17:58;19.10;64.80
1570;DHT22;778;50.120;8.698;2022-07-15T02:20:29;19.10;65.10
1570;DHT22;778;50.120;8.698;2022-07-15T02:22:59;19.00;64.90
1570;DHT22;778;50.120;8.698;2022-07-15T02:25:31;18.90;65.20
1570;DHT22;778;50.120;8.698;2022-07-15T02:28:02;19.00;65.40
1570;DHT22;778;50.120;8.698;2022-07-15T02:30:34;19.00;65.20
1570;DHT22;778;50.120;8.698;2022-07-15T02:33:04;18.90;65.60
1570;DHT22;778;50.120;8.698;2022-07-15T02:35:34;18.90;65.70
1570;DHT22;778;50.120;8.698;2022-07-15T02:38:06;18.90;66.00
1570;DHT22;778;50.120;8.698;2022-07-15T02:40:34;18.90;66.00
1570;DHT22;778;50.120;8.698;2022-07-15T02:43:10;18.80;66.10
1570;DHT22;778;50.120;8.698;2022-07-15T02:45:40;18.80;66.40
1570;DHT22;778;50.120;8.698;2022-07-15T02:48:12;18.90;66.50
1570;DHT22;778;50.120;8.698;2022-07-15T02:50:44;18.90;66.40
1570;DHT22;778;50.120;8.698;2022-07-15T02:53:16;18.90;66.30
1570;DHT22;778;50.120;8.698;2022-07-15T02:55:47;18.90;66.40
1570;DHT22;778;50.120;8.698;2022-07-15T02:58:16;18.90;66.40
1570;DHT22;778;50.120;8.698;2022-07-15T03:00:47;18.80;66.50
1570;DHT22;778;50.120;8.698;2022-07-15T03:03:16;18.80;66.80
1570;DHT22;778;50.120;8.698;2022-07-15T03:05:46;18.70;67.10
1570;DHT22;778;50.120;8.698;2022-07-15T03:08:17;18.60;67.20
1570;DHT22;778;50.120;8.698;2022-07-15T03:10:45;18.50;67.20
1570;DHT22;778;50.120;8.698;2022-07-15T03:13:14;18.50;67.60
1570;DHT22;778;50.120;8.698;2022-07-15T03:15:43;18.60;67.80
1570;DHT22;778;50.120;8.698;2022-07-15T03:18:12;18.60;67.60
1570;DHT22;778;50.120;8.698;2022-07-15T03:20:41;18.60;67.80
1570;DHT22;778;50.120;8.698;2022-07-15T03:23:14;18.50;68.20
1570;DHT22;778;50.120;8.698;2022-07-15T03:25:45;18.40;69.10
1570;DHT22;778;50.120;8.698;2022-07-15T03:28:15;18.30;68.70
1570;DHT22;778;50.120;8.698;2022-07-15T03:30:48;18.30;69.10
1570;DHT22;778;50.120;8.698;2022-07-15T03:33:17;18.30;69.30
1570;DHT22;778;50.120;8.698;2022-07-15T03:35:45;18.20;69.30
1570;DHT22;778;50.120;8.698;2022-07-15T03:38:14;18.30;69.60
1570;DHT22;778;50.120;8.698;2022-07-15T03:40:42;18.30;69.80
1570;DHT22;778;50.120;8.698;2022-07-15T03:43:12;18.20;70.00
1570;DHT22;778;50.120;8.698;2022-07-15T03:45:44;18.10;69.90
1570;DHT22;778;50.120;8.698;2022-07-15T03:48:16;18.20;70.10
1570;DHT22;778;50.120;8.698;2022-07-15T03:50:44;18.20;70.20
1570;DHT22;778;50.120;8.698;2022-07-15T03:53:13;18.20;70.70
1570;DHT22;778;50.120;8.698;2022-07-15T03:55:41;18.10;70.40
1570;DHT22;778;50.120;8.698;2022-07-15T03:58:12;18.10;70.70
1570;DHT22;778;50.120;8.698;2022-07-15T04:00:40;18.30;70.90
1570;DHT22;778;50.120;8.698;2022-07-15T04:03:09;18.20;71.00
1570;DHT22;778;50.120;8.698;2022-07-15T04:05:38;18.10;71.20
1570;DHT22;778;50.120;8.698;2022-07-15T04:08:06;18.20;71.30
1570;DHT22;778;50.120;8.698;2022-07-15T04:10:35;18.20;71.40
1570;DHT22;778;50.120;8.698;2022-07-15T04:13:03;18.10;71.70
1570;DHT22;778;50.120;8.698;2022-07-15T04:15:34;18.00;71.80
1570;DHT22;778;50.120;8.698;2022-07-15T04:18:02;18.00;72.00
1570;DHT22;778;50.120;8.698;2022-07-15T04:20:31;18.00;71.90
1570;DHT22;778;50.120;8.698;2022-07-15T04:23:00;18.00;72.10
1570;DHT22;778;50.120;8.698;2022-07-15T04:25:29;18.10;72.00
1570;DHT22;778;50.120;8.698;2022-07-15T04:27:58;18.20;71.80
1570;DHT22;778;50.120;8.698;2022-07-15T04:30:29;18.30;71.60
1570;DHT22;778;50.120;8.698;2022-07-15T04:32:59;18.40;71.40
1570;DHT22;778;50.120;8.698;2022-07-15T04:35:30;18.60;71.00
1570;DHT22;778;50.120;8.698;2022-07-15T04:38:04;18.70;71.50
1570;DHT22;778;50.120;8.698;2022-07-15T04:40:33;18.70;70.90
1570;DHT22;778;50.120;8.698;2022-07-15T04:43:07;18.80;71.10
1570;DHT22;778;50.120;8.698;2022-07-15T04:45:36;19.00;70.90
1570;DHT22;778;50.120;8.698;2022-07-15T04:48:07;19.00;70.80
1570;DHT22;778;50.120;8.698;2022-07-15T04:50:50;19.20;70.60
1570;DHT22;778;50.120;8.698;2022-07-15T04:53:24;19.40;70.40
1570;DHT22;778;50.120;8.698;2022-07-15T04:55:53;19.20;70.90
1570;DHT22;778;50.120;8.698;2022-07-15T04:58:22;19.20;71.20
1570;DHT22;778;50.120;8.698;2022-07-15T05:00:50;19.10;71.70
1570;DHT22;778;50.120;8.698;2022-07-15T05:03:21;19.10;71.50
1570;DHT22;778;50.120;8.698;2022-07-15T05:05:49;19.30;71.90
1570;DHT22;778;50.120;8.698;2022-07-15T05:08:25;19.40;71.30
1570;DHT22;778;50.120;8.698;2022-07-15T05:10:55;19.20;71.90
1570;DHT22;778;50.120;8.698;2022-07-15T05:13:25;19.00;72.10
1570;DHT22;778;50.120;8.698;2022-07-15T05:15:56;18.90;72.90
1570;DHT22;778;50.120;8.698;2022-07-15T05:18:26;18.80;73.10
1570;DHT22;778;50.120;8.698;2022-07-15T05:20:58;18.60;73.60
1570;DHT22;778;50.120;8.698;2022-07-15T05:23:30;18.50;73.80
1570;DHT22;778;50.120;8.698;2022-07-15T05:26:03;18.50;73.90
1570;DHT22;778;50.120;8.698;2022-07-15T05:28:34;18.50;74.30
1570;DHT22;778;50.120;8.698;2022-07-15T05:31:04;18.60;74.20
1570;DHT22;778;50.120;8.698;2022-07-15T05:33:35;18.70;74.30
1570;DHT22;778;50.120;8.698;2022-07-15T05:36:11;18.70;74.70
1570;DHT22;778;50.120;8.698;2022-07-15T05:38:42;18.60;74.80
1570;DHT22;778;50.120;8.698;2022-07-15T05:41:11;18.60;75.60
1570;DHT22;778;50.120;8.698;2022-07-15T05:43:40;18.40;75.40
1570;DHT22;778;50.120;8.698;2022-07-15T05:46:08;18.40;76.10
1570;DHT22;778;50.120;8.698;2022-07-15T05:48:48;18.40;76.30
1570;DHT22;778;50.120;8.698;2022-07-15T05:51:18;18.40;76.30
1570;DHT22;778;50.120;8.698;2022-07-15T05:53:47;18.70;76.40
1570;DHT22;778;50.120;8.698;2022-07-15T05:56:15;18.70;76.20
1570;DHT22;778;50.120;8.698;2022-07-15T05:58:44;18.60;76.30
1570;DHT22;778;50.120;8.698;2022-07-15T06:01:14;18.90;76.20
1570;DHT22;778;50.120;8.698;2022-07-15T06:03:43;19.00;76.10
1570;DHT22;778;50.120;8.698;2022-07-15T06:06:13;19.00;76.30
1570;DHT22;778;50.120;8.698;2022-07-15T06:08:41;19.00;76.50
1570;DHT22;778;50.120;8.698;2022-07-15T06:11:11;18.80;77.00
1570;DHT22;778;50.120;8.698;2022-07-15T06:13:41;18.80;77.80
1570;DHT22;778;50.120;8.698;2022-07-15T06:16:10;18.80;77.60
1570;DHT22;778;50.120;8.698;2022-07-15T06:18:39;18.80;78.20
1570;DHT22;778;50.120;8.698;2022-07-15T06:21:08;18.90;78.00
1570;DHT22;778;50.120;8.698;2022-07-15T06:23:38;19.00;78.80
1570;DHT22;778;50.120;8.698;2022-07-15T06:26:07;19.10;78.80
1570;DHT22;778;50.120;8.698;2022-07-15T06:28:36;19.00;79.20
1570;DHT22;778;50.120;8.698;2022-07-15T06:31:09;19.00;79.60
1570;DHT22;778;50.120;8.698;2022-07-15T06:33:38;18.90;79.90
1570;DHT22;778;50.120;8.698;2022-07-15T06:36:07;18.70;80.30
1570;DHT22;778;50.120;8.698;2022-07-15T06:38:35;18.90;80.60
1570;DHT22;778;50.120;8.698;2022-07-15T06:41:06;18.90;80.70
1570;DHT22;778;50.120;8.698;2022-07-15T06:43:34;19.00;80.50
1570;DHT22;778;50.120;8.698;2022-07-15T06:46:11;19.10;80.60
1570;DHT22;778;50.120;8.698;2022-07-15T06:48:40;19.40;80.10
1570;DHT22;778;50.120;8.698;2022-07-15T06:51:09;19.50;79.70
1570;DHT22;778;50.120;8.698;2022-07-15T06:53:40;19.40;79.80
1570;DHT22;778;50.120;8.698;2022-07-15T06:56:09;19.40;80.10
1570;DHT22;778;50.120;8.698;2022-07-15T06:58:40;19.10;80.40
1570;DHT22;778;50.120;8.698;2022-07-15T07:01:08;19.00;81.50
1570;DHT22;778;50.120;8.698;2022-07-15T07:03:37;19.00;81.50
1570;DHT22;778;50.120;8.698;2022-07-15T07:06:24;19.40;81.40
1570;DHT22;778;50.120;8.698;2022-07-15T07:08:55;19.60;81.10
1570;DHT22;778;50.120;8.698;2022-07-15T07:11:23;19.70;80.40
1570;DHT22;778;50.120;8.698;2022-07-15T07:13:52;19.90;80.20
1570;DHT22;778;50.120;8.698;2022-07-15T07:16:20;20.20;79.80
1570;DHT22;778;50.120;8.698;2022-07-15T07:18:49;20.30;79.20
1570;DHT22;778;50.120;8.698;2022-07-15T07:21:19;20.60;78.70
1570;DHT22;778;50.120;8.698;2022-07-15T07:23:58;20.90;77.90
1570;DHT22;778;50.120;8.698;2022-07-15T07:26:27;21.20;77.20
1570;DHT22;778;50.120;8.698;2022-07-15T07:28:55;21.20;76.70
1570;DHT22;778;50.120;8.698;2022-07-15T07:31:24;21.00;76.80
1570;DHT22;778;50.120;8.698;2022-07-15T07:33:54;20.70;77.70
1570;DHT22;778;50.120;8.698;2022-07-15T07:36:24;20.70;77.70
1570;DHT22;778;50.120;8.698;2022-07-15T07:38:53;20.50;78.20
1570;DHT22;778;50.120;8.698;2022-07-15T07:41:23;20.70;78.40
1570;DHT22;778;50.120;8.698;2022-07-15T07:43:52;20.60;78.80
1570;DHT22;778;50.120;8.698;2022-07-15T07:46:20;20.50;77.80
1570;DHT22;778;50.120;8.698;2022-07-15T07:48:49;20.60;78.10
1570;DHT22;778;50.120;8.698;2022-07-15T07:51:37;20.40;78.50
1570;DHT22;778;50.120;8.698;2022-07-15T07:54:07;20.10;78.60
1570;DHT22;778;50.120;8.698;2022-07-15T07:56:37;20.10;79.40
1570;DHT22;778;50.120;8.698;2022-07-15T07:59:06;20.40;79.80
1570;DHT22;778;50.120;8.698;2022-07-15T08:01:34;20.70;78.30
1570;DHT22;778;50.120;8.698;2022-07-15T08:04:03;20.80;77.80
1570;DHT22;778;50.120;8.698;2022-07-15T08:06:32;20.50;78.50
1570;DHT22;778;50.120;8.698;2022-07-15T08:09:01;20.40;78.40
1570;DHT22;778;50.120;8.698;2022-07-15T08:11:30;21.00;77.90
1570;DHT22;778;50.120;8.698;2022-07-15T08:14:00;21.30;76.20
1570;DHT22;778;50.120;8.698;2022-07-15T08:16:28;21.70;76.50
1570;DHT22;778;50.120;8.698;2022-07-15T08:18:57;22.10;74.50
1570;DHT22;778;50.120;8.698;2022-07-15T08:21:26;22.10;73.50
1570;DHT22;778;50.120;8.698;2022-07-15T08:23:54;22.10;73.50
1570;DHT22;778;50.120;8.698;2022-07-15T08:26:23;22.50;73.20
1570;DHT22;778;50.120;8.698;2022-07-15T08:28:51;23.10;71.60
1570;DHT22;778;50.120;8.698;2022-07-15T08:31:37;22.80;71.60
1570;DHT22;778;50.120;8.698;2022-07-15T08:34:06;22.80;71.20
1570;DHT22;778;50.120;8.698;2022-07-15T08:36:35;22.80;70.60
1570;DHT22;778;50.120;8.698;2022-07-15T08:39:04;22.50;70.40
1570;DHT22;778;50.120;8.698;2022-07-15T08:41:34;22.50;70.40
1570;DHT22;778;50.120;8.698;2022-07-15T08:44:05;22.70;70.50
1570;DHT22;778;50.120;8.698;2022-07-15T08:46:34;22.80;69.70
1570;DHT22;778;50.120;8.698;2022-07-15T08:49:07;23.00;70.80
1570;DHT22;778;50.120;8.698;2022-07-15T08:51:37;23.60;68.80
1570;DHT22;778;50.120;8.698;2022-07-15T08:54:10;24.10;67.50
1570;DHT22;778;50.120;8.698;2022-07-15T08:56:39;23.70;66.50
1570;DHT22;778;50.120;8.698;2022-07-15T08:59:12;23.50;67.30
1570;DHT22;778;50.120;8.698;2022-07-15T09:01:43;24.00;66.70
1570;DHT22;778;50.120;8.698;2022-07-15T09:04:13;23.40;66.90
1570;DHT22;778;50.120;8.698;2022-07-15T09:06:43;23.10;66.80
1570;DHT22;778;50.120;8.698;2022-07-15T09:09:28;22.40;69.10
1570;DHT22;778;50.120;8.698;2022-07-15T09:12:00;22.10;68.40
1570;DHT22;778;50.120;8.698;2022-07-15T09:14:42;21.80;68.90
1570;DHT22;778;50.120;8.698;2022-07-15T09:17:24;21.60;69.20
1570;DHT22;778;50.120;8.698;2022-07-15T09:20:00;21.60;69.70
1570;DHT22;778;50.120;8.698;2022-07-15T09:22:49;21.60;69.20
1570;DHT22;778;50.120;8.698;2022-07-15T09:25:19;21.60;69.20
1570;DHT22;778;50.120;8.698;2022-07-15T09:27:48;21.40;70.60
1570;DHT22;778;50.120;8.698;2022-07-15T09:30:20;21.40;70.40
1570;DHT22;778;50.120;8.698;2022-07-15T09:33:10;22.00;68.80
1570;DHT22;778;50.120;8.698;2022-07-15T09:36:16;22.40;67.80
1570;DHT22;778;50.120;8.698;2022-07-15T09:38:49;22.90;67.50
1570;DHT22;778;50.120;8.698;2022-07-15T09:41:32;23.40;65.60
1570;DHT22;778;50.120;8.698;2022-07-15T09:44:04;23.10;65.30
1570;DHT22;778;50.120;8.698;2022-07-15T09:46:43;23.10;65.70
1570;DHT22;778;50.120;8.698;2022-07-15T09:49:17;22.80;66.00
1570;DHT22;778;50.120;8.698;2022-07-15T09:52:02;22.60;65.90
1570;DHT22;778;50.120;8.698;2022-07-15T09:54:34;22.70;65.20
1570;DHT22;778;50.120;8.698;2022-07-15T09:57:05;22.90;64.60
1570;DHT22;778;50.120;8.698;2022-07-15T09:59:36;23.00;64.50
1570;DHT22;778;50.120;8.698;2022-07-15T10:02:07;23.20;64.70
1570;DHT22;778;50.120;8.698;2022-07-15T10:04:38;23.00;63.60
1570;DHT22;778;50.120;8.698;2022-07-15T10:07:07;22.30;64.10
1570;DHT22;778;50.120;8.698;2022-07-15T10:09:58;22.20;64.50
1570;DHT22;778;50.120;8.698;2022-07-15T10:12:48;22.40;64.20
1570;DHT22;778;50.120;8.698;2022-07-15T10:15:29;22.30;64.00
1570;DHT22;778;50.120;8.698;2022-07-15T10:18:11;22.50;63.40
1570;DHT22;778;50.120;8.698;2022-07-15T10:21:05;22.60;64.60
1570;DHT22;778;50.120;8.698;2022-07-15T10:24:10;22.90;62.60
1570;DHT22;778;50.120;8.698;2022-07-15T10:27:07;22.80;62.40
1570;DHT22;778;50.120;8.698;2022-07-15T10:29:42;22.70;62.60
1570;DHT22;778;50.120;8.698;2022-07-15T10:32:12;22.50;63.10
1570;DHT22;778;50.120;8.698;2022-07-15T10:34:43;22.50;64.80
1570;DHT22;778;50.120;8.698;2022-07-15T10:37:14;22.50;62.60
1570;DHT22;778;50.120;8.698;2022-07-15T10:39:55;22.50;63.50
1570;DHT22;778;50.120;8.698;2022-07-15T10:42:57;22.80;62.40
1570;DHT22;778;50.120;8.698;2022-07-15T10:45:28;23.60;62.10
1570;DHT22;778;50.120;8.698;2022-07-15T10:48:25;23.80;60.30
1570;DHT22;778;50.120;8.698;2022-07-15T10:50:54;23.60;60.00
1570;DHT22;778;50.120;8.698;2022-07-15T10:53:25;23.40;60.60
1570;DHT22;778;50.120;8.698;2022-07-15T10:55:56;23.40;62.50
1570;DHT22;778;50.120;8.698;2022-07-15T10:59:08;23.40;61.70
1570;DHT22;778;50.120;8.698;2022-07-15T11:01:38;23.50;62.00
1570;DHT22;778;50.120;8.698;2022-07-15T11:04:13;23.70;61.60
1570;DHT22;778;50.120;8.698;2022-07-15T11:07:17;23.60;61.10
1570;DHT22;778;50.120;8.698;2022-07-15T11:10:19;23.60;61.00
1570;DHT22;778;50.120;8.698;2022-07-15T11:12:57;23.20;60.00
1570;DHT22;778;50.120;8.698;2022-07-15T11:15:29;22.80;59.90
1570;DHT22;778;50.120;8.698;2022-07-15T11:17:59;22.60;61.00
1570;DHT22;778;50.120;8.698;2022-07-15T11:20:36;22.50;61.20
1570;DHT22;778;50.120;8.698;2022-07-15T11:23:08;22.70;62.00
1570;DHT22;778;50.120;8.698;2022-07-15T11:25:48;23.00;61.00
1570;DHT22;778;50.120;8.698;2022-07-15T11:28:16;23.10;61.60
1570;DHT22;778;50.120;8.698;2022-07-15T11:30:48;23.10;60.20
1570;DHT22;778;50.120;8.698;2022-07-15T11:33:23;23.10;61.80
1570;DHT22;778;50.120;8.698;2022-07-15T11:35:55;23.00;60.00
1570;DHT22;778;50.120;8.698;2022-07-15T11:38:26;23.10;60.50
1570;DHT22;778;50.120;8.698;2022-07-15T11:40:59;23.00;59.90
1570;DHT22;778;50.120;8.698;2022-07-15T11:43:57;23.00;60.50
1570;DHT22;778;50.120;8.698;2022-07-15T11:46:45;23.00;59.80
1570;DHT22;778;50.120;8.698;2022-07-15T11:49:25;23.10;60.00
1570;DHT22;778;50.120;8.698;2022-07-15T11:51:55;23.00;60.00
1570;DHT22;778;50.120;8.698;2022-07-15T11:54:24;23.00;60.00
1570;DHT22;778;50.120;8.698;2022-07-15T11:56:55;23.20;61.90
1570;DHT22;778;50.120;8.698;2022-07-15T11:59:24;23.20;59.90
1570;DHT22;778;50.120;8.698;2022-07-15T12:01:59;23.30;59.90
1570;DHT22;778;50.120;8.698;2022-07-15T12:04:28;23.00;58.90
1570;DHT22;778;50.120;8.698;2022-07-15T12:06:57;22.80;59.50
1570;DHT22;778;50.120;8.698;2022-07-15T12:09:26;23.00;60.60
1570;DHT22;778;50.120;8.698;2022-07-15T12:12:08;23.00;59.50
1570;DHT22;778;50.120;8.698;2022-07-15T12:14:37;23.20;58.70
1570;DHT22;778;50.120;8.698;2022-07-15T12:17:06;23.20;58.40
1570;DHT22;778;50.120;8.698;2022-07-15T12:19:35;23.20;58.30
1570;DHT22;778;50.120;8.698;2022-07-15T12:22:06;23.00;58.00
1570;DHT22;778;50.120;8.698;2022-07-15T12:24:40;23.00;57.50
1570;DHT22;778;50.120;8.698;2022-07-15T12:27:13;23.40;58.20
1570;DHT22;778;50.120;8.698;2022-07-15T12:29:42;23.50;57.90
1570;DHT22;778;50.120;8.698;2022-07-15T12:32:31;23.40;57.50
1570;DHT22;778;50.120;8.698;2022-07-15T12:35:00;23.70;59.30
1570;DHT22;778;50.120;8.698;2022-07-15T12:37:47;23.80;57.60
1570;DHT22;778;50.120;8.698;2022-07-15T12:40:21;23.80;56.20
1570;DHT22;778;50.120;8.698;2022-07-15T12:42:52;23.70;55.60
1570;DHT22;778;50.120;8.698;2022-07-15T12:45:23;23.40;57.30
1570;DHT22;778;50.120;8.698;2022-07-15T12:48:02;23.10;58.10
1570;DHT22;778;50.120;8.698;2022-07-15T12:50:33;23.10;57.60
1570;DHT22;778;50.120;8.698;2022-07-15T12:53:04;23.00;57.50
1570;DHT22;778;50.120;8.698;2022-07-15T12:55:39;22.90;58.70
1570;DHT22;778;50.120;8.698;2022-07-15T12:58:12;23.20;57.50
1570;DHT22;778;50.120;8.698;2022-07-15T13:00:44;23.40;56.50
1570;DHT22;778;50.120;8.698;2022-07-15T13:03:15;23.30;56.50
1570;DHT22;778;50.120;8.698;2022-07-15T13:05:56;23.10;56.70
1570;DHT22;778;50.120;8.698;2022-07-15T13:08:27;23.40;56.60
1570;DHT22;778;50.120;8.698;2022-07-15T13:10:58;23.40;56.40
1570;DHT22;778;50.120;8.698;2022-07-15T13:13:30;23.50;56.10
1570;DHT22;778;50.120;8.698;2022-07-15T13:16:00;23.50;56.40
1570;DHT22;778;50.120;8.698;2022-07-15T13:18:30;23.60;56.60
1570;DHT22;778;50.120;8.698;2022-07-15T13:20:59;23.80;56.40
1570;DHT22;778;50.120;8.698;2022-07-15T13:23:28;24.00;57.40
1570;DHT22;778;50.120;8.698;2022-07-15T13:25:56;24.20;55.10
1570;DHT22;778;50.120;8.698;2022-07-15T13:28:25;24.30;55.90
1570;DHT22;778;50.120;8.698;2022-07-15T13:30:55;24.30;54.60
1570;DHT22;778;50.120;8.698;2022-07-15T13:33:24;24.30;55.20
1570;DHT22;778;50.120;8.698;2022-07-15T13:35:52;23.90;54.70
1570;DHT22;778;50.120;8.698;2022-07-15T13:38:24;24.00;55.60
1570;DHT22;778;50.120;8.698;2022-07-15T13:40:52;24.10;54.30
1570;DHT22;778;50.120;8.698;2022-07-15T13:43:21;24.10;54.60
1570;DHT22;778;50.120;8.698;2022-07-15T13:45:49;24.10;53.80
1570;DHT22;778;50.120;8.698;2022-07-15T13:48:19;24.10;54.40
1570;DHT22;778;50.120;8.698;2022-07-15T13:50:47;24.30;54.70
1570;DHT22;778;50.120;8.698;2022-07-15T13:53:33;24.30;53.80
1570;DHT22;778;50.120;8.698;2022-07-15T13:56:02;24.50;54.20
1570;DHT22;778;50.120;8.698;2022-07-15T13:58:33;24.50;53.20
1570;DHT22;778;50.120;8.698;2022-07-15T14:01:01;24.50;52.90
1570;DHT22;778;50.120;8.698;2022-07-15T14:03:32;24.60;52.30
1570;DHT22;778;50.120;8.698;2022-07-15T14:06:00;24.70;53.50
1570;DHT22;778;50.120;8.698;2022-07-15T14:08:29;24.70;52.70
1570;DHT22;778;50.120;8.698;2022-07-15T14:10:57;24.70;51.70
1570;DHT22;778;50.120;8.698;2022-07-15T14:13:26;24.80;52.00
1570;DHT22;778;50.120;8.698;2022-07-15T14:15:54;24.80;51.50
1570;DHT22;778;50.120;8.698;2022-07-15T14:18:23;24.80;51.40
1570;DHT22;778;50.120;8.698;2022-07-15T14:21:08;24.60;51.70
1570;DHT22;778;50.120;8.698;2022-07-15T14:23:36;24.50;51.30
1570;DHT22;778;50.120;8.698;2022-07-15T14:26:05;24.70;52.50
1570;DHT22;778;50.120;8.698;2022-07-15T14:28:34;24.90;51.50
1570;DHT22;778;50.120;8.698;2022-07-15T14:31:05;24.80;52.40
1570;DHT22;778;50.120;8.698;2022-07-15T14:33:34;24.90;51.00
1570;DHT22;778;50.120;8.698;2022-07-15T14:36:03;24.90;51.40
1570;DHT22;778;50.120;8.698;2022-07-15T14:38:33;24.70;50.70
1570;DHT22;778;50.120;8.698;2022-07-15T14:41:02;24.70;50.30
1570;DHT22;778;50.120;8.698;2022-07-15T14:43:30;24.30;50.40
1570;DHT22;778;50.120;8.698;2022-07-15T14:45:59;24.30;51.10
1570;DHT22;778;50.120;8.698;2022-07-15T14:48:29;24.30;50.40
1570;DHT22;778;50.120;8.698;2022-07-15T14:50:57;24.40;50.10
1570;DHT22;778;50.120;8.698;2022-07-15T14:53:26;24.50;52.40
1570;DHT22;778;50.120;8.698;2022-07-15T14:55:56;24.70;51.40
1570;DHT22;778;50.120;8.698;2022-07-15T14:58:25;24.80;49.80
1570;DHT22;778;50.120;8.698;2022-07-15T15:00:53;24.60;50.00
1570;DHT22;778;50.120;8.698;2022-07-15T15:03:26;24.50;50.70
1570;DHT22;778;50.120;8.698;2022-07-15T15:05:54;24.30;50.30
1570;DHT22;778;50.120;8.698;2022-07-15T15:08:24;24.30;50.40
1570;DHT22;778;50.120;8.698;2022-07-15T15:10:53;24.30;50.00
1570;DHT22;778;50.120;8.698;2022-07-15T15:13:23;24.50;50.60
1570;DHT22;778;50.120;8.698;2022-07-15T15:15:51;24.70;51.50
1570;DHT22;778;50.120;8.698;2022-07-15T15:18:20;24.80;51.00
1570;DHT22;778;50.120;8.698;2022-07-15T15:20:50;24.70;49.70
1570;DHT22;778;50.120;8.698;2022-07-15T15:23:18;24.40;49.90
1570;DHT22;778;50.120;8.698;2022-07-15T15:25:47;24.30;50.80
1570;DHT22;778;50.120;8.698;2022-07-15T15:28:34;24.30;50.10
1570;DHT22;778;50.120;8.698;2022-07-15T15:31:03;24.50;50.20
1570;DHT22;778;50.120;8.698;2022-07-15T15:33:32;24.50;49.90
1570;DHT22;778;50.120;8.698;2022-07-15T15:36:00;24.50;52.40
1570;DHT22;778;50.120;8.698;2022-07-15T15:38:29;24.60;50.20
1570;DHT22;778;50.120;8.698;2022-07-15T15:40:57;24.80;50.20
1570;DHT22;778;50.120;8.698;2022-07-15T15:43:26;24.80;49.70
1570;DHT22;778;50.120;8.698;2022-07-15T15:45:56;24.70;51.10
1570;DHT22;778;50.120;8.698;2022-07-15T15:48:26;24.80;51.20
1570;DHT22;778;50.120;8.698;2022-07-15T15:50:54;24.80;49.90
1570;DHT22;778;50.120;8.698;2022-07-15T15:53:23;24.50;49.90
1570;DHT22;778;50.120;8.698;2022-07-15T15:55:52;24.30;50.00
1570;DHT22;778;50.120;8.698;2022-07-15T15:58:20;24.30;49.80
1570;DHT22;778;50.120;8.698;2022-07-15T16:00:49;24.50;50.20
1570;DHT22;778;50.120;8.698;2022-07-15T16:03:20;24.70;50.30
1570;DHT22;778;50.120;8.698;2022-07-15T16:05:49;24.90;50.00
1570;DHT22;778;50.120;8.698;2022-07-15T16:08:18;24.80;51.30
1570;DHT22;778;50.120;8.698;2022-07-15T16:10:48;24.80;49.90
1570;DHT22;778;50.120;8.698;2022-07-15T16:13:17;24.80;49.90
1570;DHT22;778;50.120;8.698;2022-07-15T16:15:46;24.90;50.20
1570;DHT22;778;50.120;8.698;2022-07-15T16:18:15;24.60;49.30
1570;DHT22;778;50.120;8.698;2022-07-15T16:20:49;24.70;49.70
1570;DHT22;778;50.120;8.698;2022-07-15T16:23:18;24.50;51.30
1570;DHT22;778;50.120;8.698;2022-07-15T16:25:46;24.70;50.90
1570;DHT22;778;50.120;8.698;2022-07-15T16:28:16;24.60;49.50
1570;DHT22;778;50.120;8.698;2022-07-15T16:30:47;24.60;50.50
1570;DHT22;778;50.120;8.698;2022-07-15T16:33:18;24.50;49.00
1570;DHT22;778;50.120;8.698;2022-07-15T16:35:46;24.30;49.20
1570;DHT22;778;50.120;8.698;2022-07-15T16:38:16;24.30;50.40
1570;DHT22;778;50.120;8.698;2022-07-15T16:40:44;24.30;49.90
1570;DHT22;778;50.120;8.698;2022-07-15T16:43:13;24.20;49.50
1570;DHT22;778;50.120;8.698;2022-07-15T16:45:42;24.20;49.40
1570;DHT22;778;50.120;8.698;2022-07-15T16:48:11;24.30;50.10